Terminal Aerodrome Forecast
Issued by NWS

Home | Current Version | Previous Version | Text Only | Print | Product List | Glossary On
Versions: 1 2 3 4 5 6 7 8 9 10 11
000
FTUS46 KSTO 281100
TAFSCK
TAF
KSCK 281137Z 2812/2912 VRB03KT 4SM BR SCT250
      TEMPO 2812/2816 2SM BR
     FM282000 31005KT P6SM FEW250
     FM290300 VRB04KT 4SM BR FEW250
      TEMPO 2908/2912 2SM BR=

USA.gov is the U.S. government's official web portal to all federal, state and local government web resources and services.